ESNL

Lycksele Airport

Sweden
METAR ESNL 230750Z AUTO 29002KT 7000 -SN FEW005/// OVC011/// M17/M20 Q1031
Observed Flight Rules
Feb-23 @ 07:50 UTC (18 minutes ago) Marginal Visual Flight Rules
Wind Visibility Clouds Conditions
290° at 2 knots 7,001 meters
  • Few at 500' AGL
  • Overcast at 1,100' AGL
  • Light Snow
Temperatures Readings
Current -17°C / 1°F
Dewpoint -20°C / -4°F
Humidity 78%
Altimeter 30.44" Hg
Pressure 1031 hPa
Elevation 214
METAR ESNL 230750Z AUTO 29002KT 7000 -SN FEW005/// OVC011/// M17/M20 Q1031
Observed Flight Rules
Feb-23 @ 07:50 UTC
(18 minutes ago)
MVFR
Wind Visibility
290° at 2 knots 7,001 meters
Clouds
  • Few at 500' AGL
  • Overcast at 1,100' AGL
Conditions
  • Light Snow
Temperature Dewpoint
-17°C / 1°F -20°C / -4°F
Humidity Altimeter Pressure
78% 30.44" Hg 1031 hPa